Time;durP1;ratioP1;P1;durP2;ratioP2;P2;SDS_P1;SDS_P2;PMS_P1;PMS_P2;Temp;Humidity;BMP_temperature;BMP_pressure;BME280_temperature;BME280_humidity;BME280_pressure;Samples;Min_cycle;Max_cycle;Signal;HPM_P1;HPM_P2
2023/05/14 00:00:08;;;;;;;6.55;2.47;;;;;;;14.28;50.84;100334.03;3094971;28;20088;-74
2023/05/14 00:01:42;;;;;;;6.45;2.10;;;;;;;14.27;50.97;100332.34;3095279;28;20050;-74
2023/05/14 00:03:13;;;;;;;3.38;2.10;;;;;;;14.18;51.10;100322.34;3090721;28;20047;-73
2023/05/14 00:04:45;;;;;;;8.25;2.00;;;;;;;14.19;51.13;100328.41;3090648;28;20059;-74
2023/05/14 00:06:16;;;;;;;4.80;2.30;;;;;;;14.17;50.95;100333.75;3095420;28;20054;-74
2023/05/14 00:07:48;;;;;;;5.75;2.05;;;;;;;14.06;51.25;100315.97;3095764;28;20114;-74
2023/05/14 00:09:19;;;;;;;6.30;1.90;;;;;;;14.07;51.20;100322.03;3095380;28;20411;-73
2023/05/14 00:10:50;;;;;;;6.50;2.10;;;;;;;14.06;51.43;100323.81;3100282;28;20050;-73
2023/05/14 00:12:22;;;;;;;6.43;2.10;;;;;;;14.02;51.39;100317.06;3095049;28;20058;-73
2023/05/14 00:13:54;;;;;;;4.25;2.10;;;;;;;13.94;51.69;100303.50;3094806;28;20054;-73
2023/05/14 00:15:27;;;;;;;6.03;2.17;;;;;;;14.00;51.55;100321.50;3094835;28;20104;-72
2023/05/14 00:16:59;;;;;;;5.18;2.10;;;;;;;13.89;51.62;100306.34;3094996;28;20546;-72
2023/05/14 00:18:31;;;;;;;5.23;2.30;;;;;;;13.94;51.75;100318.38;3095032;28;20504;-73
2023/05/14 00:20:05;;;;;;;4.07;2.30;;;;;;;13.91;51.78;100319.38;3095255;28;20310;-72
2023/05/14 00:21:37;;;;;;;4.50;2.10;;;;;;;13.85;51.79;100315.28;3094905;28;20102;-73
2023/05/14 00:23:08;;;;;;;6.53;2.17;;;;;;;13.71;52.20;100296.81;3095193;28;20047;-72
2023/05/14 00:24:40;;;;;;;5.22;1.98;;;;;;;13.73;51.96;100299.38;3095031;28;20198;-73
2023/05/14 00:26:12;;;;;;;5.53;2.20;;;;;;;13.82;52.14;100318.06;3094777;28;20050;-73
2023/05/14 00:27:43;;;;;;;8.38;2.00;;;;;;;13.76;52.43;100302.66;3094843;28;20141;-73
2023/05/14 00:29:16;;;;;;;3.80;1.92;;;;;;;13.79;52.39;100310.38;3094978;28;20051;-72
2023/05/14 00:30:48;;;;;;;6.35;2.00;;;;;;;13.77;52.68;100317.44;3094857;28;20920;-72
2023/05/14 00:32:20;;;;;;;5.65;2.08;;;;;;;13.68;52.71;100304.81;3094957;28;20042;-72
2023/05/14 00:33:52;;;;;;;5.07;1.92;;;;;;;13.65;52.65;100307.59;3094813;28;20714;-72
2023/05/14 00:35:24;;;;;;;4.40;2.05;;;;;;;13.69;52.99;100319.59;3094956;28;20042;-73
2023/05/14 00:36:56;;;;;;;9.05;2.20;;;;;;;13.69;52.78;100327.44;3095121;28;20064;-74
2023/05/14 00:38:28;;;;;;;4.18;1.73;;;;;;;13.68;52.77;100319.66;3094649;28;20519;-74
2023/05/14 00:39:59;;;;;;;4.78;2.22;;;;;;;13.66;53.20;100324.97;3094968;28;20054;-74
2023/05/14 00:41:30;;;;;;;5.60;2.45;;;;;;;13.63;52.93;100314.66;3094572;28;20118;-74
2023/05/14 00:43:02;;;;;;;8.27;2.17;;;;;;;13.55;53.38;100307.19;3094941;28;20065;-74
2023/05/14 00:44:36;;;;;;;3.67;2.17;;;;;;;13.66;53.38;100324.97;3094763;28;20069;-73
2023/05/14 00:46:11;;;;;;;6.43;2.30;;;;;;;13.64;53.27;100308.53;3094322;28;20061;-71
2023/05/14 00:47:43;;;;;;;4.32;2.40;;;;;;;13.67;53.38;100312.75;3095034;28;20058;-72
2023/05/14 00:49:15;;;;;;;3.65;2.45;;;;;;;13.59;53.26;100298.25;3108121;28;20103;-72
2023/05/14 00:50:49;;;;;;;4.38;2.35;;;;;;;13.61;53.32;100299.03;3082702;28;20081;-72
2023/05/14 00:52:21;;;;;;;9.27;2.88;;;;;;;13.64;53.47;100296.28;3108699;28;20071;-72
2023/05/14 00:53:54;;;;;;;4.15;2.15;;;;;;;13.63;53.75;100286.72;3093221;28;20507;-72
2023/05/14 00:55:27;;;;;;;7.03;2.13;;;;;;;13.59;53.81;100287.78;3129045;28;20440;-71
2023/05/14 00:56:58;;;;;;;6.03;3.15;;;;;;;13.62;53.82;100286.81;3104281;28;20549;-72
2023/05/14 00:58:30;;;;;;;4.72;2.60;;;;;;;13.59;53.78;100281.72;3094414;28;20051;-72
2023/05/14 01:00:02;;;;;;;7.00;2.95;;;;;;;13.59;53.99;100271.25;3094605;28;20127;-72
2023/05/14 01:01:35;;;;;;;4.80;2.47;;;;;;;13.59;53.91;100281.72;3094367;28;20424;-72
2023/05/14 01:03:08;;;;;;;5.60;2.50;;;;;;;13.52;54.20;100273.34;3093747;28;20538;-72
2023/05/14 01:04:40;;;;;;;7.53;3.20;;;;;;;13.52;54.09;100275.13;3094814;28;20046;-72
2023/05/14 01:06:16;;;;;;;7.40;3.10;;;;;;;13.51;54.43;100279.47;3094191;28;20058;-72
2023/05/14 01:07:55;;;;;;;4.60;2.42;;;;;;;13.50;54.21;100274.34;3094533;28;20050;-73
2023/05/14 01:09:36;;;;;;;5.88;3.22;;;;;;;13.45;54.46;100274.53;3094120;28;20103;-71
2023/05/14 01:11:13;;;;;;;8.15;2.90;;;;;;;13.24;54.64;100245.03;3094623;28;20047;-72
2023/05/14 01:12:59;;;;;;;6.93;2.75;;;;;;;13.42;54.63;100275.53;3094637;28;20046;-73
2023/05/14 01:14:41;;;;;;;5.55;2.78;;;;;;;13.46;54.51;100275.38;3094393;28;20054;-73
2023/05/14 01:16:13;;;;;;;9.35;2.70;;;;;;;13.44;54.87;100270.25;3089912;28;20137;-74
2023/05/14 01:17:50;;;;;;;4.57;2.83;;;;;;;13.45;54.99;100271.09;3094290;28;20059;-74
2023/05/14 01:19:28;;;;;;;6.97;2.72;;;;;;;13.41;55.08;100271.25;3094453;28;20062;-74
2023/05/14 01:21:01;;;;;;;4.63;3.03;;;;;;;13.40;55.03;100263.47;3094457;28;21032;-74
2023/05/14 01:22:33;;;;;;;4.68;2.80;;;;;;;13.41;54.83;100265.16;3093835;28;20054;-74
2023/05/14 01:24:06;;;;;;;6.70;2.88;;;;;;;13.39;54.89;100262.63;3094275;28;20125;-74
2023/05/14 01:25:38;;;;;;;5.90;2.88;;;;;;;13.36;55.27;100254.91;3094624;28;20100;-75
2023/05/14 01:27:18;;;;;;;4.32;2.58;;;;;;;13.39;55.14;100264.38;3094365;28;20607;-75
2023/05/14 01:28:51;;;;;;;6.28;2.55;;;;;;;13.36;55.33;100265.38;3093997;28;20085;-75
2023/05/14 01:30:27;;;;;;;;;;;;;;;13.30;55.17;100267.47;3094690;28;20050;-75
2023/05/14 01:32:01;;;;;;;9.98;2.95;;;;;;;13.24;55.34;100259.88;3094575;28;19921;-75
2023/05/14 01:33:35;;;;;;;5.80;2.58;;;;;;;13.31;55.12;100269.13;3094101;28;20447;-75
2023/05/14 01:35:08;;;;;;;8.63;3.20;;;;;;;13.31;55.26;100277.88;3094370;28;20055;-73
2023/05/14 01:36:41;;;;;;;8.43;3.05;;;;;;;13.31;55.12;100263.91;3094105;28;20087;-73
2023/05/14 01:38:18;;;;;;;6.15;2.90;;;;;;;13.29;55.10;100273.63;3094448;28;20384;-73
2023/05/14 01:39:51;;;;;;;7.30;2.97;;;;;;;13.29;55.39;100274.47;3094404;28;20054;-73
2023/05/14 01:41:25;;;;;;;4.90;2.58;;;;;;;13.27;55.12;100267.59;3093955;28;20387;-73
2023/05/14 01:42:57;;;;;;;;;;;;;;;13.17;55.05;100260.19;3094431;28;20460;-71
2023/05/14 01:44:29;;;;;;;7.45;3.17;;;;;;;13.14;55.44;100251.66;3094209;28;19929;-72
2023/05/14 01:46:01;;;;;;;6.97;3.13;;;;;;;13.05;55.50;100244.25;3094131;28;20050;-72
2023/05/14 01:47:32;;;;;;;8.25;3.75;;;;;;;13.15;55.46;100255.94;3094493;28;20108;-71
2023/05/14 01:49:03;;;;;;;6.55;3.25;;;;;;;13.09;55.55;100245.78;3099907;28;20268;-72
2023/05/14 01:50:35;;;;;;;5.85;3.03;;;;;;;13.13;55.74;100253.41;3107483;28;20042;-72
2023/05/14 01:52:07;;;;;;;7.03;2.88;;;;;;;13.10;55.63;100253.56;3094730;28;20054;-72
2023/05/14 01:53:41;;;;;;;4.40;3.05;;;;;;;13.10;55.63;100253.56;3093826;28;20511;-72
2023/05/14 01:55:12;;;;;;;5.50;3.05;;;;;;;13.06;55.72;100245.94;3089980;28;20065;-72
2023/05/14 01:56:44;;;;;;;5.13;2.40;;;;;;;12.94;55.32;100240.38;3093764;28;20050;-72
2023/05/14 01:58:16;;;;;;;6.03;2.78;;;;;;;13.01;55.37;100251.38;3094313;28;20439;-72
2023/05/14 01:59:47;;;;;;;6.53;2.65;;;;;;;12.98;55.17;100254.13;3094501;28;20431;-71
2023/05/14 02:01:19;;;;;;;3.83;2.17;;;;;;;12.95;54.82;100247.31;3093922;28;20046;-71
2023/05/14 02:02:51;;;;;;;4.55;2.28;;;;;;;12.94;54.73;100244.75;3093348;28;20055;-71
2023/05/14 02:04:23;;;;;;;5.55;2.40;;;;;;;12.88;55.06;100238.06;3093779;28;20459;-71
2023/05/14 02:05:54;;;;;;;3.63;2.33;;;;;;;12.67;54.77;100207.72;3094095;28;20076;-71
2023/05/14 02:07:26;;;;;;;7.25;2.28;;;;;;;12.90;54.58;100251.91;3095777;28;20054;-71
2023/05/14 02:09:00;;;;;;;5.97;2.20;;;;;;;12.87;54.78;100248.59;3094654;28;20050;-70
2023/05/14 02:10:31;;;;;;;;;;;;;;;12.80;54.92;100257.63;3094422;28;20120;-71
2023/05/14 02:12:03;;;;;;;5.10;3.35;;;;;;;12.78;55.40;100265.56;3094092;28;20062;-71
2023/05/14 02:13:35;;;;;;;6.20;3.80;;;;;;;12.76;55.32;100256.94;3094225;28;20054;-74
2023/05/14 02:15:09;;;;;;;11.23;4.88;;;;;;;12.76;55.18;100259.53;3092915;28;20055;-75
2023/05/14 02:16:41;;;;;;;11.70;6.63;;;;;;;12.75;55.31;100260.47;3093911;28;20517;-74
2023/05/14 02:18:13;;;;;;;12.65;6.38;;;;;;;12.76;55.57;100275.22;3093736;28;20054;-74
2023/05/14 02:19:44;;;;;;;24.10;9.10;;;;;;;12.70;55.58;100263.28;3129018;28;20056;-74
2023/05/14 02:21:16;;;;;;;21.13;9.15;;;;;;;12.73;55.50;100264.91;3113308;28;20043;-74
2023/05/14 02:22:47;;;;;;;11.18;5.47;;;;;;;12.71;55.65;100262.34;3093972;28;20957;-74
2023/05/14 02:24:20;;;;;;;14.32;7.15;;;;;;;12.72;55.49;100269.31;3094011;28;20547;-72
2023/05/14 02:25:52;;;;;;;8.25;3.20;;;;;;;12.69;55.52;100279.91;3094006;28;20456;-74
2023/05/14 02:27:24;;;;;;;19.10;7.30;;;;;;;12.68;55.48;100277.34;3093932;28;20050;-73
2023/05/14 02:28:55;;;;;;;8.02;3.25;;;;;;;12.66;55.58;100272.19;3094088;28;20069;-74
2023/05/14 02:30:28;;;;;;;18.40;6.70;;;;;;;12.65;55.97;100272.25;3093840;28;20527;-73
2023/05/14 02:31:59;;;;;;;5.82;2.95;;;;;;;12.57;55.74;100266.53;3094017;28;20050;-73
2023/05/14 02:33:31;;;;;;;10.98;3.10;;;;;;;12.56;56.20;100270.06;3093913;28;20119;-73
2023/05/14 02:35:03;;;;;;;9.80;3.72;;;;;;;12.53;56.08;100264.06;3093698;28;20115;-73
2023/05/14 02:36:35;;;;;;;5.30;2.70;;;;;;;12.26;56.01;100221.75;3093850;28;20060;-73
2023/05/14 02:38:07;;;;;;;6.18;2.13;;;;;;;12.49;56.04;100261.66;3093881;28;20555;-73
2023/05/14 02:39:39;;;;;;;8.35;3.90;;;;;;;12.48;56.35;100259.94;3093983;28;20046;-73
2023/05/14 02:41:11;;;;;;;7.82;4.03;;;;;;;12.47;56.21;100258.28;3093676;28;20054;-73
2023/05/14 02:42:43;;;;;;;6.93;3.15;;;;;;;12.43;56.58;100254.13;3093897;28;20054;-73
2023/05/14 02:44:15;;;;;;;5.65;3.13;;;;;;;12.42;56.27;100255.00;3093505;28;20058;-72
2023/05/14 02:45:47;;;;;;;4.97;2.67;;;;;;;12.44;56.54;100256.63;3093609;28;20511;-72
2023/05/14 02:47:19;;;;;;;7.55;3.30;;;;;;;12.42;56.50;100258.50;3093509;28;20411;-72
2023/05/14 02:48:51;;;;;;;4.35;2.58;;;;;;;12.43;56.22;100267.19;3093652;28;20054;-72
2023/05/14 02:50:22;;;;;;;5.45;2.45;;;;;;;12.42;56.51;100279.41;3109674;28;20120;-71
2023/05/14 02:51:54;;;;;;;9.35;2.85;;;;;;;12.43;56.46;100294.13;3093948;28;20187;-71
2023/05/14 02:53:26;;;;;;;9.77;2.63;;;;;;;12.41;56.46;100289.91;3093753;28;20137;-71
2023/05/14 02:54:59;;;;;;;8.00;4.43;;;;;;;12.45;56.56;100300.16;3089544;28;20450;-71
2023/05/14 02:56:31;;;;;;;6.65;3.00;;;;;;;12.47;56.15;100307.91;3092954;28;20099;-72
2023/05/14 02:58:02;;;;;;;6.00;3.10;;;;;;;12.47;56.26;100311.34;3093811;28;20046;-73
2023/05/14 02:59:33;;;;;;;3.42;2.25;;;;;;;12.46;56.14;100311.44;3103308;28;20052;-73
2023/05/14 03:01:05;;;;;;;9.50;2.72;;;;;;;12.44;56.38;100300.19;3096638;28;20100;-73
2023/05/14 03:02:36;;;;;;;4.82;2.65;;;;;;;12.46;56.21;100306.22;3093517;28;20063;-73
2023/05/14 03:04:08;;;;;;;6.75;2.65;;;;;;;12.41;56.20;100295.13;3083962;28;20244;-73
2023/05/14 03:05:40;;;;;;;7.18;2.10;;;;;;;12.42;56.23;100308.13;3093410;28;20458;-73
2023/05/14 03:07:11;;;;;;;11.38;6.88;;;;;;;12.45;56.23;100310.59;3093992;28;20050;-73
2023/05/14 03:08:43;;;;;;;9.02;4.72;;;;;;;12.40;56.34;100302.13;3093369;28;20054;-73
2023/05/14 03:10:16;;;;;;;11.13;3.35;;;;;;;12.45;56.52;100322.78;3093675;28;20050;-73
2023/05/14 03:11:48;;;;;;;;;;;;;;;12.39;56.36;100328.28;3093446;28;20053;-73
2023/05/14 03:13:20;;;;;;;6.80;3.50;;;;;;;12.40;56.39;100325.63;3093455;28;19969;-73
2023/05/14 03:14:52;;;;;;;7.40;3.10;;;;;;;12.39;56.60;100315.22;3093374;28;20050;-73
2023/05/14 03:16:23;;;;;;;5.78;2.75;;;;;;;12.43;56.73;100322.03;3093588;28;20061;-73
2023/05/14 03:17:55;;;;;;;5.95;3.33;;;;;;;12.41;56.45;100305.56;3093291;28;20055;-73
2023/05/14 03:19:27;;;;;;;9.02;3.72;;;;;;;12.44;56.97;100316.72;3093416;28;20078;-73
2023/05/14 03:20:59;;;;;;;9.00;3.53;;;;;;;12.44;56.85;100308.88;3093438;28;20057;-74
2023/05/14 03:22:30;;;;;;;6.30;3.55;;;;;;;12.41;56.87;100310.78;3093523;28;20058;-71
2023/05/14 03:24:02;;;;;;;6.97;3.40;;;;;;;12.42;57.03;100312.47;3093416;28;20069;-71
2023/05/14 03:25:35;;;;;;;6.97;3.22;;;;;;;12.39;57.01;100307.38;3093473;28;20492;-71
2023/05/14 03:27:07;;;;;;;7.07;3.60;;;;;;;12.29;56.67;100299.13;3094433;28;20458;-72
2023/05/14 03:28:40;;;;;;;7.20;3.22;;;;;;;12.40;56.94;100309.94;3095562;28;20053;-74
2023/05/14 03:30:11;;;;;;;8.73;4.00;;;;;;;12.39;56.74;100307.38;3095246;28;20054;-74
2023/05/14 03:31:43;;;;;;;7.32;3.85;;;;;;;12.35;56.85;100306.69;3095510;28;20208;-70
2023/05/14 03:33:15;;;;;;;8.27;3.30;;;;;;;12.36;57.01;100313.59;3095326;28;20050;-71
2023/05/14 03:34:47;;;;;;;8.30;3.80;;;;;;;12.39;56.92;100310.00;3095312;28;20050;-71
2023/05/14 03:36:19;;;;;;;11.43;3.92;;;;;;;12.41;56.80;100318.63;3095668;28;20443;-71
2023/05/14 03:37:51;;;;;;;7.10;4.22;;;;;;;12.35;56.95;100319.75;3095455;28;20569;-71
2023/05/14 03:39:23;;;;;;;12.80;4.15;;;;;;;12.39;57.31;100323.06;3095529;28;20083;-71
2023/05/14 03:40:56;;;;;;;9.15;3.78;;;;;;;12.41;56.88;100329.91;3095247;28;20050;-71
2023/05/14 03:42:28;;;;;;;;;;;;;;;12.33;56.89;100324.19;3095585;28;20116;-71
2023/05/14 03:43:59;;;;;;;11.35;3.80;;;;;;;12.33;57.25;100329.41;3095122;28;19922;-71
2023/05/14 03:45:31;;;;;;;8.75;3.50;;;;;;;12.36;57.48;100333.63;3095168;28;20072;-71
2023/05/14 03:47:03;;;;;;;5.38;3.08;;;;;;;12.35;57.21;100331.97;3095327;28;20054;-71
2023/05/14 03:48:34;;;;;;;8.70;3.65;;;;;;;12.34;57.61;100332.88;3095275;28;20050;-71
2023/05/14 03:50:08;;;;;;;8.43;3.40;;;;;;;12.39;57.51;100339.56;3106133;28;20447;-71
2023/05/14 03:51:40;;;;;;;6.07;3.25;;;;;;;12.39;57.75;100334.34;3095495;28;20050;-71
2023/05/14 03:53:12;;;;;;;7.90;3.38;;;;;;;12.37;58.05;100324.91;3095390;28;20054;-71
2023/05/14 03:54:44;;;;;;;8.75;3.60;;;;;;;12.43;58.12;100332.47;3092049;28;20527;-71
2023/05/14 03:56:17;;;;;;;7.80;3.45;;;;;;;12.45;58.68;100328.00;3095061;28;20042;-71
2023/05/14 03:57:49;;;;;;;8.20;3.28;;;;;;;12.44;58.73;100335.00;3095192;28;20053;-71
2023/05/14 03:59:21;;;;;;;6.70;3.28;;;;;;;12.42;58.74;100321.19;3095242;28;20463;-71
2023/05/14 04:00:52;;;;;;;10.68;2.92;;;;;;;12.47;58.52;100323.56;3095072;28;20062;-71
2023/05/14 04:02:24;;;;;;;6.18;3.10;;;;;;;12.48;58.69;100331.34;3095020;28;20054;-71
2023/05/14 04:03:56;;;;;;;7.60;2.83;;;;;;;12.48;58.71;100327.88;3086808;28;20051;-71
2023/05/14 04:05:27;;;;;;;11.27;2.90;;;;;;;12.48;58.55;100322.66;3098383;28;20053;-73
2023/05/14 04:06:59;;;;;;;8.13;3.03;;;;;;;12.44;58.67;100321.09;3095479;28;20054;-72
2023/05/14 04:08:31;;;;;;;8.10;3.40;;;;;;;12.48;58.76;100335.72;3094974;28;20145;-72
2023/05/14 04:10:02;;;;;;;6.82;3.53;;;;;;;12.46;58.72;100334.94;3095204;28;20047;-72
2023/05/14 04:11:35;;;;;;;7.55;3.10;;;;;;;12.45;59.09;100325.41;3095098;28;20068;-72
2023/05/14 04:13:07;;;;;;;6.22;3.22;;;;;;;12.45;59.02;100328.00;3104766;28;20063;-72
2023/05/14 04:14:39;;;;;;;7.38;2.60;;;;;;;12.48;59.08;100331.34;3116883;28;20729;-72
2023/05/14 04:16:11;;;;;;;7.65;2.70;;;;;;;12.50;59.17;100328.66;3095066;28;20049;-71
2023/05/14 04:17:43;;;;;;;3.90;2.58;;;;;;;12.48;58.99;100320.91;3095260;28;20596;-74
2023/05/14 04:19:13;;;;;;;9.30;3.33;;;;;;;12.60;59.09;100336.94;3088810;28;20050;-73
2023/05/14 04:20:45;;;;;;;4.72;2.40;;;;;;;12.60;58.93;100332.56;3095034;28;20135;-74
2023/05/14 04:22:17;;;;;;;5.68;2.85;;;;;;;12.64;58.98;100341.13;3094651;28;20455;-74
2023/05/14 04:23:50;;;;;;;6.00;2.70;;;;;;;12.65;59.13;100346.25;3095115;28;20103;-74
2023/05/14 04:25:21;;;;;;;4.45;2.78;;;;;;;12.58;58.94;100329.19;3094633;28;20074;-74
2023/05/14 04:26:54;;;;;;;4.57;2.70;;;;;;;12.65;59.11;100333.19;3094919;28;20427;-74
2023/05/14 04:28:25;;;;;;;6.82;2.67;;;;;;;12.65;59.27;100334.97;3095297;28;20046;-74
2023/05/14 04:29:57;;;;;;;5.85;2.90;;;;;;;12.53;59.63;100312.84;3095005;28;20062;-74
2023/05/14 04:31:29;;;;;;;7.75;3.03;;;;;;;12.61;59.87;100322.97;3095136;28;20089;-74
2023/05/14 04:33:01;;;;;;;4.53;2.70;;;;;;;12.58;59.67;100317.88;3095018;28;20115;-74
2023/05/14 04:34:32;;;;;;;4.80;2.88;;;;;;;12.61;60.16;100321.19;3094959;28;20058;-73
2023/05/14 04:36:04;;;;;;;7.18;3.40;;;;;;;12.63;60.00;100335.06;3094835;28;20129;-74
2023/05/14 04:37:36;;;;;;;4.68;3.15;;;;;;;12.61;60.32;100329.03;3094376;28;20050;-74
2023/05/14 04:39:11;;;;;;;6.18;3.35;;;;;;;12.68;60.40;100337.44;3094314;28;20054;-74
2023/05/14 04:40:43;;;;;;;6.82;3.00;;;;;;;12.69;60.33;100337.38;3095097;28;20061;-73
2023/05/14 04:42:16;;;;;;;6.93;2.97;;;;;;;12.71;60.45;100342.53;3094718;28;20050;-73
2023/05/14 04:43:50;;;;;;;6.90;3.47;;;;;;;12.72;60.53;100341.63;3094996;28;20123;-73
2023/05/14 04:45:22;;;;;;;6.95;3.10;;;;;;;12.67;60.89;100349.66;3086873;28;20050;-72
2023/05/14 04:46:54;;;;;;;6.40;3.25;;;;;;;12.71;60.79;100366.88;3087875;28;20054;-72
2023/05/14 04:48:25;;;;;;;9.25;3.22;;;;;;;12.76;60.87;100374.53;3087595;28;20133;-73
2023/05/14 04:49:57;;;;;;;8.23;3.85;;;;;;;12.72;61.26;100367.75;3088851;28;20058;-73
2023/05/14 04:51:29;;;;;;;7.03;3.50;;;;;;;12.68;61.52;100355.72;3092480;28;20133;-73
2023/05/14 04:53:00;;;;;;;5.43;3.03;;;;;;;12.70;61.50;100361.75;3089607;28;20442;-73
2023/05/14 04:54:32;;;;;;;7.97;3.33;;;;;;;12.69;61.44;100362.66;3088531;28;20050;-73
2023/05/14 04:56:04;;;;;;;6.75;3.88;;;;;;;12.70;61.67;100357.34;3089885;28;20042;-75
2023/05/14 04:57:37;;;;;;;7.50;3.97;;;;;;;12.73;61.73;100351.16;3087730;28;20104;-73
2023/05/14 04:59:09;;;;;;;5.50;3.42;;;;;;;12.75;62.06;100344.94;3087188;28;20058;-73
2023/05/14 05:00:41;;;;;;;8.57;4.22;;;;;;;12.76;61.88;100335.34;3089993;28;20077;-72
2023/05/14 05:02:13;;;;;;;9.43;3.72;;;;;;;12.79;61.98;100324.72;3089986;28;20051;-73
2023/05/14 05:03:44;;;;;;;9.57;4.32;;;;;;;12.90;61.85;100332.94;3087950;28;20050;-73
2023/05/14 05:05:16;;;;;;;7.95;4.05;;;;;;;12.90;61.86;100329.47;3086631;28;20069;-71
2023/05/14 05:06:48;;;;;;;8.10;4.10;;;;;;;12.90;61.65;100332.94;3090643;28;20310;-73
2023/05/14 05:08:20;;;;;;;12.52;4.00;;;;;;;12.92;61.61;100345.91;3086810;28;20050;-73
2023/05/14 05:09:51;;;;;;;11.57;3.95;;;;;;;12.86;61.46;100354.03;3087912;28;20047;-75
2023/05/14 05:11:22;;;;;;;9.68;3.92;;;;;;;12.95;61.93;100367.56;3090225;28;20057;-74
2023/05/14 05:12:56;;;;;;;6.78;3.65;;;;;;;13.00;61.75;100353.41;3088346;28;20050;-77
2023/05/14 05:14:26;;;;;;;6.35;3.72;;;;;;;13.01;61.71;100357.72;3086523;28;20107;-74
2023/05/14 05:15:58;;;;;;;13.00;4.38;;;;;;;13.05;61.54;100354.06;3088202;28;20054;-74
2023/05/14 05:17:30;;;;;;;8.48;4.00;;;;;;;13.09;61.94;100340.75;3090962;28;20442;-72
2023/05/14 05:19:02;;;;;;;6.72;3.30;;;;;;;13.10;61.80;100333.75;3089289;28;20447;-69
2023/05/14 05:20:34;;;;;;;7.85;3.78;;;;;;;13.17;61.42;100337.78;3089569;28;20047;-71
2023/05/14 05:22:06;;;;;;;7.45;3.72;;;;;;;13.21;61.65;100347.19;3089364;28;20248;-77
2023/05/14 05:23:38;;;;;;;6.20;3.85;;;;;;;13.24;61.46;100357.50;3079946;28;20067;-74
2023/05/14 05:25:11;;;;;;;10.45;3.85;;;;;;;13.19;61.30;100343.78;3085018;28;20777;-75
2023/05/14 05:26:42;;;;;;;5.60;3.30;;;;;;;13.25;61.24;100353.09;3088920;28;20170;-73
2023/05/14 05:28:15;;;;;;;5.68;3.42;;;;;;;13.22;61.27;100354.09;3085153;28;20057;-74
2023/05/14 05:29:46;;;;;;;28.65;16.52;;;;;;;13.03;60.88;100329.75;3081636;28;20104;-75
2023/05/14 05:31:18;;;;;;;48.38;24.48;;;;;;;13.29;60.64;100359.94;3088364;28;20485;-74
2023/05/14 05:32:50;;;;;;;35.42;17.00;;;;;;;13.35;60.60;100364.88;3087978;28;20081;-75
2023/05/14 05:34:22;;;;;;;8.13;3.95;;;;;;;13.39;60.72;100366.41;3081605;28;20058;-73
2023/05/14 05:35:54;;;;;;;5.15;3.45;;;;;;;13.42;60.65;100364.50;3081719;28;20050;-71
2023/05/14 05:37:26;;;;;;;6.95;4.13;;;;;;;13.41;60.45;100354.97;3082248;28;20482;-72
2023/05/14 05:39:01;;;;;;;11.85;5.93;;;;;;;13.48;60.56;100367.75;3085984;28;20050;-72
2023/05/14 05:40:33;;;;;;;14.52;8.43;;;;;;;13.42;60.50;100361.88;3087801;28;20125;-73
2023/05/14 05:42:05;;;;;;;6.70;4.07;;;;;;;13.54;60.40;100384.00;3090970;28;20050;-72
2023/05/14 05:43:38;;;;;;;9.98;3.45;;;;;;;13.58;60.21;100382.94;3092910;28;20078;-73
2023/05/14 05:45:11;;;;;;;9.35;3.42;;;;;;;13.60;60.16;100391.53;3086410;28;20046;-69
2023/05/14 05:46:43;;;;;;;8.93;3.83;;;;;;;13.53;59.76;100374.44;3088003;28;20436;-72
2023/05/14 05:48:14;;;;;;;25.45;12.77;;;;;;;13.62;59.74;100384.47;3087912;28;20552;-70
2023/05/14 05:49:46;;;;;;;18.20;6.05;;;;;;;13.61;59.72;100364.47;3090577;28;20587;-69
2023/05/14 05:51:18;;;;;;;6.07;4.25;;;;;;;13.70;59.61;100376.25;3085646;28;20054;-70
2023/05/14 05:52:50;;;;;;;11.63;4.18;;;;;;;13.72;59.72;100363.91;3091186;28;20103;-71
2023/05/14 05:54:24;;;;;;;6.78;3.30;;;;;;;13.73;59.72;100367.41;3091089;28;20062;-70
2023/05/14 05:55:55;;;;;;;10.80;3.95;;;;;;;13.73;59.39;100367.41;3085880;28;20038;-71
2023/05/14 05:57:27;;;;;;;6.50;3.15;;;;;;;13.76;59.26;100378.56;3085191;28;20981;-68
2023/05/14 05:59:00;;;;;;;7.10;3.40;;;;;;;13.75;58.90;100382.09;3083763;28;20455;-69
2023/05/14 06:00:32;;;;;;;6.18;3.20;;;;;;;13.75;59.18;100392.56;3089273;28;20074;-69
2023/05/14 06:02:05;;;;;;;8.23;2.80;;;;;;;13.74;58.97;100401.34;3085862;28;20077;-70
2023/05/14 06:03:36;;;;;;;5.38;2.97;;;;;;;13.78;58.85;100413.38;3088422;28;20069;-72
2023/05/14 06:05:09;;;;;;;4.72;3.05;;;;;;;13.82;58.84;100414.91;3082365;28;20050;-71
2023/05/14 06:06:41;;;;;;;8.32;3.03;;;;;;;13.83;58.89;100414.00;3087400;28;20054;-70
2023/05/14 06:08:13;;;;;;;9.55;3.20;;;;;;;13.85;58.71;100420.00;3089703;28;20046;-70
2023/05/14 06:09:44;;;;;;;5.35;2.78;;;;;;;13.84;58.72;100423.56;3088789;28;20050;-71
2023/05/14 06:11:16;;;;;;;6.38;3.25;;;;;;;13.86;58.45;100426.09;3090872;28;20777;-73
2023/05/14 06:12:47;;;;;;;5.07;3.00;;;;;;;13.87;58.32;100414.69;3085157;28;20050;-74
2023/05/14 06:14:21;;;;;;;4.90;2.67;;;;;;;13.81;58.48;100413.25;3081329;28;20536;-75
2023/05/14 06:15:51;;;;;;;8.00;2.90;;;;;;;13.88;58.49;100427.72;3086528;28;20504;-77
2023/05/14 06:17:23;;;;;;;5.85;3.20;;;;;;;13.88;58.43;100417.25;3094659;28;20126;-74
2023/05/14 06:18:55;;;;;;;9.45;3.15;;;;;;;13.91;58.51;100428.50;3086570;28;20463;-72
2023/05/14 06:20:27;;;;;;;8.15;2.72;;;;;;;13.94;58.27;100433.59;3082692;28;20062;-75
2023/05/14 06:21:59;;;;;;;4.60;2.65;;;;;;;13.96;58.46;100426.47;3089230;28;20119;-77
2023/05/14 06:23:31;;;;;;;10.32;3.50;;;;;;;13.96;58.52;100414.25;3081351;28;20508;-78
2023/05/14 06:25:02;;;;;;;10.55;4.07;;;;;;;14.02;58.50;100424.44;3087686;28;20050;-75
2023/05/14 06:26:34;;;;;;;8.95;3.55;;;;;;;14.03;58.21;100425.25;3088834;28;20087;-74
2023/05/14 06:28:05;;;;;;;5.80;3.53;;;;;;;14.06;58.31;100427.72;3088847;28;20046;-70
2023/05/14 06:29:39;;;;;;;10.93;4.03;;;;;;;14.09;58.24;100432.81;3086291;28;20139;-77
2023/05/14 06:31:11;;;;;;;6.07;3.53;;;;;;;14.10;58.06;100437.97;3082158;28;20086;-75
2023/05/14 06:32:41;;;;;;;9.65;4.07;;;;;;;14.06;58.52;100431.19;3088226;28;20077;-77
2023/05/14 06:34:13;;;;;;;10.88;4.00;;;;;;;14.14;58.36;100438.69;3087267;28;20050;-75
2023/05/14 06:36:10;;;;;;;11.48;3.80;;;;;;;14.15;58.59;100442.97;3087006;28;20050;-79
2023/05/14 06:37:42;;;;;;;8.45;4.03;;;;;;;14.16;58.70;100457.78;3081082;28;20058;-76
2023/05/14 06:39:14;;;;;;;10.73;4.32;;;;;;;14.16;59.15;100463.00;3085302;28;20057;-78
2023/05/14 06:40:45;;;;;;;7.93;4.55;;;;;;;14.23;59.55;100472.28;3085847;28;20497;-77
2023/05/14 06:42:18;;;;;;;10.20;4.57;;;;;;;14.21;59.94;100468.88;3093721;28;20107;-75
2023/05/14 06:43:50;;;;;;;8.07;4.88;;;;;;;14.19;59.87;100475.94;3088907;28;20454;-77
2023/05/14 06:45:24;;;;;;;9.50;4.38;;;;;;;14.10;60.16;100471.16;3086644;28;20472;-76
2023/05/14 06:46:59;;;;;;;11.20;5.10;;;;;;;14.18;60.55;100492.59;3083776;28;20074;-76
2023/05/14 06:48:49;;;;;;;12.20;4.80;;;;;;;14.18;60.84;100497.00;3088683;28;20108;-77
2023/05/14 06:50:21;;;;;;;9.15;4.35;;;;;;;13.97;61.33;100467.47;3087421;28;20051;-76
2023/05/14 06:51:53;;;;;;;11.70;4.15;;;;;;;14.09;61.63;100493.91;3085415;28;20055;-76
2023/05/14 06:53:25;;;;;;;10.13;4.10;;;;;;;14.11;62.01;100499.06;3092393;28;20088;-76
2023/05/14 06:54:56;;;;;;;10.30;4.07;;;;;;;14.06;61.97;100490.59;3090376;28;20194;-77
2023/05/14 06:56:27;;;;;;;10.07;4.30;;;;;;;14.09;62.28;100496.50;3085021;28;20051;-75
2023/05/14 06:57:59;;;;;;;9.57;4.70;;;;;;;14.05;62.61;100491.50;3088496;28;20108;-75
2023/05/14 07:01:33;;;;;;;61.03;23.67;;;;;;;14.11;63.92;100496.47;3089976;28;20598;-75
2023/05/14 07:03:08;;;;;;;16.30;6.22;;;;;;;14.16;64.39;100496.22;3087151;28;20046;-74
2023/05/14 07:04:40;;;;;;;14.27;7.20;;;;;;;14.19;64.87;100494.28;3094245;28;20051;-78
2023/05/14 07:06:12;;;;;;;15.63;9.20;;;;;;;14.20;65.23;100485.53;3083440;28;20095;-70
2023/05/14 07:07:44;;;;;;;19.27;8.40;;;;;;;14.25;65.17;100496.59;3090666;28;20090;-69
2023/05/14 07:09:16;;;;;;;17.73;9.70;;;;;;;14.26;65.23;100497.47;3090562;28;20065;-68
2023/05/14 07:10:48;;;;;;;15.68;8.93;;;;;;;14.28;65.70;100490.38;3090695;28;20185;-70